DEWPR EDNX-LOLH
Flight info
| Callsign | DEWPR |
|---|---|
| Flight time | 1h 6m |
| Altitude | 5000 |
| Route | OTT IFR DCT TITIG DCT LNZ VFR |
| Aircraft | C172/L-SFG/C |
Departure
| Time | 2026-05-05 17:25 |
|---|---|
| Airport | Schleissheim Airfield (EDNX) |
Arrival
| Time | 2026-05-05 18:32 |
|---|---|
| Airport | Hofkirchen Airfield (LOLH) |
| Time | Latitude | Longitude | Altitude | Speed | Heading |
|---|---|---|---|---|---|
| 2026-05-05 17:15 | 48.23563 | 11.55296 | 1595 ft | 0 kts | 339° |
| 2026-05-05 17:21 | 48.23566 | 11.55294 | 1595 ft | 2 kts | 339° |
| 2026-05-05 17:22 | 48.23629 | 11.55210 | 1595 ft | 9 kts | 319° |
| 2026-05-05 17:22 | 48.23697 | 11.55163 | 1595 ft | 12 kts | 348° |
| 2026-05-05 17:22 | 48.23787 | 11.55157 | 1595 ft | 12 kts | 18° |
| 2026-05-05 17:22 | 48.23803 | 11.55146 | 1595 ft | 0 kts | 201° |
| 2026-05-05 17:23 | 48.23802 | 11.55145 | 1595 ft | 1 kts | 203° |
| 2026-05-05 17:24 | 48.23793 | 11.55210 | 1595 ft | 23 kts | 75° |
| 2026-05-05 17:24 | 48.23872 | 11.55650 | 1596 ft | 57 kts | 76° |
| 2026-05-05 17:24 | 48.23983 | 11.56270 | 1649 ft | 69 kts | 75° |
| 2026-05-05 17:24 | 48.24111 | 11.56976 | 1811 ft | 69 kts | 74° |
| 2026-05-05 17:25 | 48.24088 | 11.57689 | 1988 ft | 69 kts | 116° |
| 2026-05-05 17:25 | 48.23892 | 11.58072 | 2090 ft | 69 kts | 135° |
| 2026-05-05 17:25 | 48.23461 | 11.58809 | 2287 ft | 72 kts | 127° |
| 2026-05-05 17:25 | 48.23176 | 11.59455 | 2418 ft | 75 kts | 121° |
| 2026-05-05 17:26 | 48.22919 | 11.60168 | 2610 ft | 78 kts | 117° |
| 2026-05-05 17:26 | 48.22682 | 11.60929 | 2740 ft | 82 kts | 114° |
| 2026-05-05 17:26 | 48.22456 | 11.61745 | 2871 ft | 85 kts | 112° |
| 2026-05-05 17:26 | 48.22236 | 11.62597 | 3001 ft | 88 kts | 111° |
| 2026-05-05 17:27 | 48.22022 | 11.63469 | 3172 ft | 90 kts | 110° |
| 2026-05-05 17:27 | 48.21794 | 11.64417 | 3264 ft | 99 kts | 110° |
| 2026-05-05 17:27 | 48.21563 | 11.65398 | 3300 ft | 101 kts | 110° |
| 2026-05-05 17:27 | 48.21330 | 11.66403 | 3413 ft | 101 kts | 109° |
| 2026-05-05 17:28 | 48.21100 | 11.67408 | 3524 ft | 99 kts | 109° |
| 2026-05-05 17:28 | 48.20878 | 11.68389 | 3648 ft | 98 kts | 109° |
| 2026-05-05 17:28 | 48.20658 | 11.69356 | 3869 ft | 97 kts | 109° |
| 2026-05-05 17:28 | 48.20440 | 11.70315 | 3993 ft | 96 kts | 109° |
| 2026-05-05 17:29 | 48.20227 | 11.71258 | 4248 ft | 95 kts | 109° |
| 2026-05-05 17:29 | 48.20013 | 11.72204 | 4430 ft | 94 kts | 109° |
| 2026-05-05 17:29 | 48.19836 | 11.72982 | 4541 ft | 93 kts | 109° |
| 2026-05-05 17:29 | 48.19629 | 11.73902 | 4667 ft | 92 kts | 107° |
| 2026-05-05 17:30 | 48.19461 | 11.74834 | 4840 ft | 91 kts | 105° |
| 2026-05-05 17:30 | 48.19282 | 11.75763 | 4989 ft | 91 kts | 107° |
| 2026-05-05 17:30 | 48.19085 | 11.76711 | 5015 ft | 99 kts | 108° |
| 2026-05-05 17:30 | 48.18868 | 11.77709 | 5007 ft | 101 kts | 109° |
| 2026-05-05 17:31 | 48.18635 | 11.78741 | 5005 ft | 103 kts | 109° |
| 2026-05-05 17:31 | 48.18401 | 11.79783 | 5099 ft | 107 kts | 109° |
| 2026-05-05 17:31 | 48.18141 | 11.80907 | 5053 ft | 119 kts | 109° |
| 2026-05-05 17:31 | 48.17916 | 11.82092 | 5009 ft | 116 kts | 105° |
| 2026-05-05 17:32 | 48.17724 | 11.83247 | 5026 ft | 113 kts | 104° |
| 2026-05-05 17:32 | 48.17534 | 11.84405 | 5005 ft | 111 kts | 104° |
| 2026-05-05 17:32 | 48.17354 | 11.85530 | 5056 ft | 109 kts | 104° |
| 2026-05-05 17:32 | 48.17168 | 11.86682 | 5129 ft | 119 kts | 104° |
| 2026-05-05 17:33 | 48.16991 | 11.87780 | 5024 ft | 121 kts | 104° |
| 2026-05-05 17:33 | 48.16916 | 11.88247 | 5012 ft | 119 kts | 104° |
| 2026-05-05 17:33 | 48.16739 | 11.89353 | 5003 ft | 114 kts | 104° |
| 2026-05-05 17:33 | 48.16557 | 11.90486 | 5003 ft | 110 kts | 104° |
| 2026-05-05 17:34 | 48.16377 | 11.91610 | 5003 ft | 108 kts | 104° |
| 2026-05-05 17:34 | 48.16200 | 11.92713 | 5004 ft | 107 kts | 104° |
| 2026-05-05 17:34 | 48.16024 | 11.93808 | 5004 ft | 106 kts | 103° |
| 2026-05-05 17:34 | 48.15866 | 11.94897 | 5004 ft | 106 kts | 102° |
| 2026-05-05 17:35 | 48.15706 | 11.95985 | 5004 ft | 105 kts | 103° |
| 2026-05-05 17:35 | 48.15539 | 11.97068 | 5004 ft | 105 kts | 103° |
| 2026-05-05 17:35 | 48.15371 | 11.98139 | 5004 ft | 105 kts | 103° |
| 2026-05-05 17:35 | 48.15197 | 11.99224 | 5004 ft | 105 kts | 104° |
| 2026-05-05 17:36 | 48.15026 | 12.00293 | 5004 ft | 105 kts | 104° |
| 2026-05-05 17:36 | 48.14853 | 12.01365 | 5004 ft | 105 kts | 104° |
| 2026-05-05 17:36 | 48.14679 | 12.02446 | 5004 ft | 105 kts | 104° |
| 2026-05-05 17:36 | 48.14503 | 12.03531 | 5004 ft | 105 kts | 104° |
| 2026-05-05 17:37 | 48.14328 | 12.04611 | 5004 ft | 105 kts | 104° |
| 2026-05-05 17:37 | 48.14214 | 12.05319 | 5004 ft | 105 kts | 104° |
| 2026-05-05 17:37 | 48.13983 | 12.06763 | 5004 ft | 105 kts | 103° |
| 2026-05-05 17:37 | 48.13812 | 12.07827 | 5004 ft | 105 kts | 103° |
| 2026-05-05 17:38 | 48.13638 | 12.08905 | 5004 ft | 105 kts | 103° |
| 2026-05-05 17:38 | 48.13464 | 12.09982 | 5004 ft | 105 kts | 103° |
| 2026-05-05 17:38 | 48.13289 | 12.11058 | 5004 ft | 105 kts | 103° |
| 2026-05-05 17:38 | 48.13114 | 12.12134 | 5004 ft | 105 kts | 103° |
| 2026-05-05 17:39 | 48.12941 | 12.13198 | 5004 ft | 105 kts | 103° |
| 2026-05-05 17:39 | 48.12767 | 12.14267 | 5004 ft | 105 kts | 103° |
| 2026-05-05 17:39 | 48.12593 | 12.15339 | 5004 ft | 105 kts | 103° |
| 2026-05-05 17:39 | 48.12418 | 12.16409 | 5004 ft | 105 kts | 103° |
| 2026-05-05 17:40 | 48.12243 | 12.17484 | 5004 ft | 105 kts | 103° |
| 2026-05-05 17:40 | 48.12067 | 12.18561 | 5004 ft | 105 kts | 103° |
| 2026-05-05 17:40 | 48.11892 | 12.19634 | 5004 ft | 105 kts | 103° |
| 2026-05-05 17:40 | 48.11717 | 12.20705 | 5004 ft | 105 kts | 103° |
| 2026-05-05 17:41 | 48.11541 | 12.21776 | 5004 ft | 105 kts | 103° |
| 2026-05-05 17:41 | 48.11364 | 12.22863 | 5004 ft | 105 kts | 103° |
| 2026-05-05 17:41 | 48.11189 | 12.23932 | 5004 ft | 105 kts | 103° |
| 2026-05-05 17:41 | 48.11011 | 12.25017 | 5004 ft | 105 kts | 103° |
| 2026-05-05 17:42 | 48.10836 | 12.26089 | 5004 ft | 105 kts | 103° |
| 2026-05-05 17:42 | 48.10660 | 12.27166 | 5004 ft | 105 kts | 103° |
| 2026-05-05 17:42 | 48.10483 | 12.28249 | 5004 ft | 105 kts | 103° |
| 2026-05-05 17:42 | 48.10307 | 12.29328 | 5004 ft | 105 kts | 103° |
| 2026-05-05 17:43 | 48.10129 | 12.30419 | 5004 ft | 105 kts | 103° |
| 2026-05-05 17:43 | 48.09956 | 12.31480 | 5004 ft | 105 kts | 103° |
| 2026-05-05 17:43 | 48.09778 | 12.32565 | 5004 ft | 105 kts | 103° |
| 2026-05-05 17:43 | 48.09618 | 12.33543 | 5004 ft | 105 kts | 103° |
| 2026-05-05 17:44 | 48.09441 | 12.34618 | 5004 ft | 105 kts | 103° |
| 2026-05-05 17:44 | 48.09273 | 12.35641 | 5004 ft | 105 kts | 103° |
| 2026-05-05 17:44 | 48.09103 | 12.36672 | 5004 ft | 105 kts | 103° |
| 2026-05-05 17:44 | 48.08927 | 12.37740 | 5004 ft | 105 kts | 103° |
| 2026-05-05 17:45 | 48.08749 | 12.38820 | 5004 ft | 105 kts | 103° |
| 2026-05-05 17:45 | 48.08573 | 12.39887 | 5004 ft | 105 kts | 103° |
| 2026-05-05 17:45 | 48.08396 | 12.40960 | 5004 ft | 105 kts | 103° |
| 2026-05-05 17:45 | 48.08219 | 12.42031 | 5004 ft | 105 kts | 103° |
| 2026-05-05 17:46 | 48.08054 | 12.43037 | 5004 ft | 105 kts | 103° |
| 2026-05-05 17:46 | 48.07875 | 12.44115 | 5004 ft | 105 kts | 103° |
| 2026-05-05 17:46 | 48.07697 | 12.45190 | 5004 ft | 105 kts | 103° |
| 2026-05-05 17:46 | 48.07522 | 12.46250 | 5004 ft | 105 kts | 103° |
| 2026-05-05 17:47 | 48.07344 | 12.47324 | 5004 ft | 105 kts | 103° |
| 2026-05-05 17:47 | 48.07165 | 12.48404 | 5004 ft | 105 kts | 103° |
| 2026-05-05 17:47 | 48.06985 | 12.49487 | 5004 ft | 105 kts | 103° |
| 2026-05-05 17:47 | 48.06808 | 12.50555 | 5004 ft | 105 kts | 103° |
| 2026-05-05 17:48 | 48.06636 | 12.51592 | 5004 ft | 105 kts | 103° |
| 2026-05-05 17:48 | 48.06459 | 12.52660 | 5004 ft | 105 kts | 103° |
| 2026-05-05 17:48 | 48.06281 | 12.53729 | 5004 ft | 105 kts | 103° |
| 2026-05-05 17:48 | 48.06113 | 12.54736 | 5004 ft | 105 kts | 103° |
| 2026-05-05 17:49 | 48.06034 | 12.55825 | 5004 ft | 105 kts | 85° |
| 2026-05-05 17:49 | 48.06119 | 12.56930 | 5005 ft | 105 kts | 82° |
| 2026-05-05 17:49 | 48.06226 | 12.58017 | 5004 ft | 105 kts | 81° |
| 2026-05-05 17:49 | 48.06337 | 12.59095 | 5004 ft | 105 kts | 81° |
| 2026-05-05 17:50 | 48.06457 | 12.60204 | 5004 ft | 105 kts | 80° |
| 2026-05-05 17:50 | 48.06573 | 12.61254 | 5004 ft | 105 kts | 80° |
| 2026-05-05 17:50 | 48.06694 | 12.62335 | 5004 ft | 105 kts | 80° |
| 2026-05-05 17:50 | 48.06819 | 12.63432 | 5004 ft | 105 kts | 80° |
| 2026-05-05 17:51 | 48.06943 | 12.64513 | 5004 ft | 105 kts | 80° |
| 2026-05-05 17:51 | 48.07068 | 12.65594 | 5004 ft | 105 kts | 80° |
| 2026-05-05 17:51 | 48.07181 | 12.66575 | 5004 ft | 105 kts | 80° |
| 2026-05-05 17:51 | 48.07288 | 12.67498 | 5004 ft | 105 kts | 80° |
| 2026-05-05 17:52 | 48.07424 | 12.68660 | 5004 ft | 105 kts | 80° |
| 2026-05-05 17:52 | 48.07547 | 12.69714 | 5004 ft | 105 kts | 80° |
| 2026-05-05 17:52 | 48.07669 | 12.70766 | 5004 ft | 105 kts | 80° |
| 2026-05-05 17:52 | 48.07801 | 12.71894 | 5004 ft | 105 kts | 80° |
| 2026-05-05 17:53 | 48.07929 | 12.72986 | 5004 ft | 105 kts | 80° |
| 2026-05-05 17:53 | 48.08054 | 12.74060 | 5004 ft | 105 kts | 80° |
| 2026-05-05 17:53 | 48.08174 | 12.75088 | 5004 ft | 105 kts | 80° |
| 2026-05-05 17:53 | 48.08305 | 12.76206 | 5004 ft | 105 kts | 80° |
| 2026-05-05 17:54 | 48.08415 | 12.77154 | 5004 ft | 105 kts | 80° |
| 2026-05-05 17:54 | 48.08545 | 12.78271 | 5004 ft | 105 kts | 80° |
| 2026-05-05 17:54 | 48.08673 | 12.79370 | 5004 ft | 105 kts | 80° |
| 2026-05-05 17:54 | 48.08727 | 12.79830 | 5004 ft | 105 kts | 80° |
| 2026-05-05 17:55 | 48.08852 | 12.80909 | 5004 ft | 105 kts | 80° |
| 2026-05-05 17:55 | 48.08979 | 12.81994 | 5004 ft | 105 kts | 80° |
| 2026-05-05 17:55 | 48.09107 | 12.83102 | 5004 ft | 105 kts | 80° |
| 2026-05-05 17:55 | 48.09233 | 12.84190 | 5004 ft | 105 kts | 80° |
| 2026-05-05 17:56 | 48.09360 | 12.85286 | 5004 ft | 105 kts | 80° |
| 2026-05-05 17:56 | 48.09485 | 12.86364 | 5004 ft | 105 kts | 80° |
| 2026-05-05 17:56 | 48.09611 | 12.87471 | 5004 ft | 105 kts | 81° |
| 2026-05-05 17:56 | 48.09715 | 12.88554 | 5004 ft | 105 kts | 82° |
| 2026-05-05 17:57 | 48.09825 | 12.89661 | 5004 ft | 105 kts | 81° |
| 2026-05-05 17:57 | 48.09938 | 12.90757 | 5004 ft | 105 kts | 81° |
| 2026-05-05 17:57 | 48.10053 | 12.91847 | 5004 ft | 105 kts | 81° |
| 2026-05-05 17:57 | 48.10171 | 12.92940 | 5004 ft | 105 kts | 81° |
| 2026-05-05 17:58 | 48.10294 | 12.94047 | 5004 ft | 105 kts | 81° |
| 2026-05-05 17:58 | 48.10413 | 12.95123 | 5004 ft | 105 kts | 81° |
| 2026-05-05 17:58 | 48.10538 | 12.96230 | 5004 ft | 105 kts | 81° |
| 2026-05-05 17:58 | 48.10661 | 12.97326 | 5004 ft | 105 kts | 80° |
| 2026-05-05 17:59 | 48.10783 | 12.98403 | 5004 ft | 105 kts | 80° |
| 2026-05-05 17:59 | 48.10914 | 12.99500 | 5005 ft | 105 kts | 80° |
| 2026-05-05 17:59 | 48.11035 | 13.00576 | 5004 ft | 105 kts | 80° |
| 2026-05-05 17:59 | 48.11158 | 13.01667 | 5004 ft | 105 kts | 80° |
| 2026-05-05 18:00 | 48.11281 | 13.02753 | 5004 ft | 105 kts | 80° |
| 2026-05-05 18:00 | 48.11406 | 13.03851 | 5004 ft | 105 kts | 80° |
| 2026-05-05 18:00 | 48.11529 | 13.04938 | 5004 ft | 105 kts | 80° |
| 2026-05-05 18:00 | 48.11646 | 13.05967 | 5004 ft | 105 kts | 80° |
| 2026-05-05 18:01 | 48.11776 | 13.07099 | 5004 ft | 105 kts | 79° |
| 2026-05-05 18:01 | 48.11910 | 13.08188 | 5004 ft | 105 kts | 79° |
| 2026-05-05 18:01 | 48.12041 | 13.09262 | 5004 ft | 105 kts | 79° |
| 2026-05-05 18:01 | 48.12172 | 13.10356 | 5004 ft | 105 kts | 80° |
| 2026-05-05 18:02 | 48.12301 | 13.11446 | 5004 ft | 105 kts | 80° |
| 2026-05-05 18:02 | 48.12428 | 13.12537 | 5004 ft | 105 kts | 80° |
| 2026-05-05 18:02 | 48.12553 | 13.13618 | 5004 ft | 105 kts | 80° |
| 2026-05-05 18:02 | 48.12678 | 13.14699 | 5004 ft | 105 kts | 80° |
| 2026-05-05 18:03 | 48.12802 | 13.15787 | 5004 ft | 105 kts | 80° |
| 2026-05-05 18:03 | 48.12928 | 13.16885 | 5004 ft | 105 kts | 80° |
| 2026-05-05 18:03 | 48.13051 | 13.17971 | 5004 ft | 105 kts | 80° |
| 2026-05-05 18:03 | 48.13175 | 13.19063 | 5004 ft | 105 kts | 80° |
| 2026-05-05 18:04 | 48.13298 | 13.20156 | 5004 ft | 105 kts | 80° |
| 2026-05-05 18:04 | 48.13421 | 13.21245 | 5004 ft | 105 kts | 80° |
| 2026-05-05 18:04 | 48.13544 | 13.22331 | 5004 ft | 105 kts | 80° |
| 2026-05-05 18:04 | 48.13667 | 13.23420 | 5004 ft | 105 kts | 80° |
| 2026-05-05 18:05 | 48.13789 | 13.24504 | 5004 ft | 105 kts | 80° |
| 2026-05-05 18:05 | 48.13912 | 13.25604 | 5004 ft | 105 kts | 80° |
| 2026-05-05 18:05 | 48.14035 | 13.26703 | 5004 ft | 105 kts | 80° |
| 2026-05-05 18:05 | 48.14120 | 13.27461 | 5004 ft | 105 kts | 80° |
| 2026-05-05 18:06 | 48.14226 | 13.28407 | 5004 ft | 105 kts | 80° |
| 2026-05-05 18:06 | 48.14307 | 13.29130 | 5004 ft | 105 kts | 80° |
| 2026-05-05 18:06 | 48.14470 | 13.30585 | 5004 ft | 105 kts | 80° |
| 2026-05-05 18:06 | 48.14591 | 13.31671 | 5004 ft | 105 kts | 80° |
| 2026-05-05 18:07 | 48.14714 | 13.32768 | 5004 ft | 105 kts | 80° |
| 2026-05-05 18:07 | 48.14835 | 13.33859 | 5004 ft | 105 kts | 80° |
| 2026-05-05 18:07 | 48.14956 | 13.34944 | 5004 ft | 105 kts | 80° |
| 2026-05-05 18:07 | 48.15078 | 13.36037 | 5004 ft | 105 kts | 80° |
| 2026-05-05 18:08 | 48.15199 | 13.37125 | 5004 ft | 105 kts | 80° |
| 2026-05-05 18:08 | 48.15321 | 13.38224 | 5004 ft | 105 kts | 80° |
| 2026-05-05 18:08 | 48.15390 | 13.39321 | 4974 ft | 109 kts | 88° |
| 2026-05-05 18:08 | 48.15401 | 13.40498 | 4854 ft | 116 kts | 89° |
| 2026-05-05 18:09 | 48.15401 | 13.41750 | 4731 ft | 121 kts | 90° |
| 2026-05-05 18:09 | 48.15396 | 13.43040 | 4606 ft | 123 kts | 90° |
| 2026-05-05 18:09 | 48.15389 | 13.44334 | 4494 ft | 123 kts | 90° |
| 2026-05-05 18:09 | 48.15379 | 13.45619 | 4393 ft | 123 kts | 90° |
| 2026-05-05 18:10 | 48.15369 | 13.46898 | 4293 ft | 122 kts | 90° |
| 2026-05-05 18:10 | 48.15357 | 13.48185 | 4192 ft | 122 kts | 90° |
| 2026-05-05 18:10 | 48.15344 | 13.49436 | 4093 ft | 122 kts | 90° |
| 2026-05-05 18:10 | 48.15331 | 13.50729 | 3992 ft | 122 kts | 90° |
| 2026-05-05 18:11 | 48.15317 | 13.52007 | 3907 ft | 121 kts | 90° |
| 2026-05-05 18:11 | 48.15305 | 13.53192 | 3858 ft | 118 kts | 90° |
| 2026-05-05 18:11 | 48.15291 | 13.54464 | 3805 ft | 117 kts | 90° |
| 2026-05-05 18:11 | 48.15278 | 13.55682 | 3754 ft | 116 kts | 90° |
| 2026-05-05 18:12 | 48.15264 | 13.56892 | 3704 ft | 116 kts | 90° |
| 2026-05-05 18:12 | 48.15251 | 13.58107 | 3653 ft | 115 kts | 90° |
| 2026-05-05 18:12 | 48.15237 | 13.59316 | 3603 ft | 115 kts | 90° |
| 2026-05-05 18:12 | 48.15220 | 13.60532 | 3550 ft | 115 kts | 91° |
| 2026-05-05 18:13 | 48.15199 | 13.61761 | 3447 ft | 117 kts | 91° |
| 2026-05-05 18:13 | 48.15175 | 13.62997 | 3279 ft | 120 kts | 91° |
| 2026-05-05 18:13 | 48.15151 | 13.64258 | 3083 ft | 123 kts | 91° |
| 2026-05-05 18:13 | 48.15132 | 13.65354 | 2934 ft | 124 kts | 91° |
| 2026-05-05 18:14 | 48.15127 | 13.65680 | 2909 ft | 124 kts | 91° |
| 2026-05-05 18:14 | 48.15112 | 13.66711 | 2829 ft | 123 kts | 91° |
| 2026-05-05 18:14 | 48.15094 | 13.68018 | 2726 ft | 122 kts | 91° |
| 2026-05-05 18:14 | 48.15077 | 13.69299 | 2626 ft | 122 kts | 91° |
| 2026-05-05 18:15 | 48.15064 | 13.70303 | 2546 ft | 122 kts | 91° |
| 2026-05-05 18:15 | 48.15047 | 13.71589 | 2474 ft | 120 kts | 91° |
| 2026-05-05 18:15 | 48.15031 | 13.72826 | 2438 ft | 116 kts | 91° |
| 2026-05-05 18:15 | 48.15016 | 13.73982 | 2412 ft | 114 kts | 91° |
| 2026-05-05 18:16 | 48.15001 | 13.75171 | 2408 ft | 111 kts | 91° |
| 2026-05-05 18:16 | 48.14986 | 13.76322 | 2409 ft | 109 kts | 91° |
| 2026-05-05 18:16 | 48.14970 | 13.77453 | 2409 ft | 108 kts | 91° |
| 2026-05-05 18:16 | 48.14955 | 13.78594 | 2409 ft | 108 kts | 91° |
| 2026-05-05 18:17 | 48.14940 | 13.79711 | 2409 ft | 107 kts | 91° |
| 2026-05-05 18:17 | 48.14924 | 13.80844 | 2409 ft | 107 kts | 91° |
| 2026-05-05 18:17 | 48.14909 | 13.81970 | 2409 ft | 107 kts | 91° |
| 2026-05-05 18:17 | 48.14893 | 13.83087 | 2410 ft | 107 kts | 91° |
| 2026-05-05 18:18 | 48.14877 | 13.84211 | 2410 ft | 107 kts | 91° |
| 2026-05-05 18:18 | 48.14843 | 13.86565 | 2410 ft | 107 kts | 91° |
| 2026-05-05 18:18 | 48.14827 | 13.87698 | 2410 ft | 107 kts | 91° |
| 2026-05-05 18:19 | 48.14811 | 13.88830 | 2410 ft | 107 kts | 91° |
| 2026-05-05 18:19 | 48.14794 | 13.89958 | 2410 ft | 107 kts | 91° |
| 2026-05-05 18:19 | 48.14777 | 13.91096 | 2410 ft | 107 kts | 91° |
| 2026-05-05 18:19 | 48.14761 | 13.92217 | 2410 ft | 107 kts | 91° |
| 2026-05-05 18:20 | 48.14744 | 13.93323 | 2410 ft | 107 kts | 91° |
| 2026-05-05 18:20 | 48.14732 | 13.94081 | 2410 ft | 107 kts | 91° |
| 2026-05-05 18:20 | 48.14716 | 13.95196 | 2410 ft | 107 kts | 91° |
| 2026-05-05 18:20 | 48.14693 | 13.96705 | 2410 ft | 107 kts | 91° |
| 2026-05-05 18:21 | 48.14675 | 13.97823 | 2410 ft | 107 kts | 91° |
| 2026-05-05 18:21 | 48.14658 | 13.98943 | 2410 ft | 107 kts | 91° |
| 2026-05-05 18:21 | 48.14641 | 14.00055 | 2410 ft | 107 kts | 91° |
| 2026-05-05 18:21 | 48.14623 | 14.01181 | 2410 ft | 107 kts | 91° |
| 2026-05-05 18:22 | 48.14605 | 14.02303 | 2410 ft | 107 kts | 91° |
| 2026-05-05 18:22 | 48.14588 | 14.03426 | 2410 ft | 107 kts | 91° |
| 2026-05-05 18:22 | 48.14570 | 14.04539 | 2410 ft | 107 kts | 91° |
| 2026-05-05 18:22 | 48.14552 | 14.05680 | 2410 ft | 107 kts | 91° |
| 2026-05-05 18:23 | 48.14534 | 14.06791 | 2410 ft | 107 kts | 91° |
| 2026-05-05 18:23 | 48.14515 | 14.07923 | 2410 ft | 107 kts | 91° |
| 2026-05-05 18:23 | 48.14497 | 14.09052 | 2410 ft | 107 kts | 91° |
| 2026-05-05 18:23 | 48.14478 | 14.10177 | 2410 ft | 107 kts | 91° |
| 2026-05-05 18:24 | 48.14460 | 14.11290 | 2410 ft | 107 kts | 91° |
| 2026-05-05 18:24 | 48.14441 | 14.12419 | 2410 ft | 107 kts | 91° |
| 2026-05-05 18:24 | 48.14375 | 14.13533 | 2410 ft | 107 kts | 100° |
| 2026-05-05 18:24 | 48.14234 | 14.14641 | 2410 ft | 107 kts | 101° |
| 2026-05-05 18:25 | 48.14090 | 14.15730 | 2410 ft | 107 kts | 101° |
| 2026-05-05 18:25 | 48.14035 | 14.16106 | 2409 ft | 107 kts | 104° |
| 2026-05-05 18:25 | 48.13609 | 14.17859 | 2410 ft | 107 kts | 111° |
| 2026-05-05 18:25 | 48.13338 | 14.18904 | 2410 ft | 107 kts | 111° |
| 2026-05-05 18:26 | 48.13069 | 14.19943 | 2410 ft | 107 kts | 111° |
| 2026-05-05 18:26 | 48.12794 | 14.21002 | 2410 ft | 107 kts | 111° |
| 2026-05-05 18:26 | 48.12526 | 14.22039 | 2410 ft | 107 kts | 111° |
| 2026-05-05 18:26 | 48.12254 | 14.23090 | 2410 ft | 107 kts | 111° |
| 2026-05-05 18:27 | 48.11986 | 14.24129 | 2410 ft | 107 kts | 111° |
| 2026-05-05 18:27 | 48.11717 | 14.25170 | 2405 ft | 108 kts | 111° |
| 2026-05-05 18:27 | 48.11440 | 14.26241 | 2357 ft | 111 kts | 111° |
| 2026-05-05 18:27 | 48.11154 | 14.27351 | 2307 ft | 113 kts | 111° |
| 2026-05-05 18:28 | 48.10668 | 14.29557 | 2221 ft | 114 kts | 91° |
| 2026-05-05 18:28 | 48.10773 | 14.30744 | 2188 ft | 113 kts | 81° |
| 2026-05-05 18:28 | 48.10897 | 14.31906 | 2159 ft | 113 kts | 80° |
| 2026-05-05 18:29 | 48.11032 | 14.33063 | 2118 ft | 113 kts | 80° |
| 2026-05-05 18:29 | 48.11173 | 14.34249 | 2085 ft | 113 kts | 79° |
| 2026-05-05 18:29 | 48.11312 | 14.35391 | 2037 ft | 113 kts | 78° |
| 2026-05-05 18:29 | 48.11466 | 14.36535 | 2050 ft | 108 kts | 75° |
| 2026-05-05 18:30 | 48.11988 | 14.37181 | 2002 ft | 102 kts | 351° |
| 2026-05-05 18:30 | 48.12644 | 14.36897 | 1878 ft | 90 kts | 344° |
| 2026-05-05 18:30 | 48.13200 | 14.36654 | 1766 ft | 80 kts | 343° |
| 2026-05-05 18:30 | 48.13743 | 14.36449 | 1675 ft | 79 kts | 346° |
| 2026-05-05 18:31 | 48.14111 | 14.35995 | 1555 ft | 64 kts | 279° |
| 2026-05-05 18:31 | 48.14087 | 14.35319 | 1430 ft | 65 kts | 265° |
| 2026-05-05 18:31 | 48.14030 | 14.34654 | 1317 ft | 65 kts | 261° |
| 2026-05-05 18:31 | 48.13956 | 14.33976 | 1202 ft | 64 kts | 260° |
| 2026-05-05 18:32 | 48.13900 | 14.33463 | 1171 ft | 34 kts | 260° |
| 2026-05-05 18:32 | 48.13898 | 14.33281 | 1171 ft | 3 kts | 322° |
| 2026-05-05 18:32 | 48.13913 | 14.33276 | 1171 ft | 4 kts | 353° |
| 2026-05-05 18:32 | 48.13936 | 14.33307 | 1171 ft | 9 kts | 80° |
| 2026-05-05 18:33 | 48.13965 | 14.33319 | 1171 ft | 1 kts | 80° |
| 2026-05-05 18:33 | 48.13965 | 14.33320 | 1171 ft | 0 kts | 78° |